Flight Track Log - Related Links

Times and Time Zones

All times are in EDT time to prevent confusion due to time zone crossing. See the TYR472 flight status page for this flight to view local times or setup timezone preferences in your user account.

Time Position Orientation Groundspeed Altitude Reporting Facility
EDT Latitude Longitude Course Direction KTS MPH feet Rate Location/Type
Fri 04:31:00 AM 47.6218 7.8650 82° East  Level Estimated
Fri 04:32:00 AM 47.6324 7.9769 82° East  Level Estimated
Fri 04:33:00 AM 47.6428 8.0887 82° East  Level Estimated
Fri 04:34:00 AM 47.6531 8.2006 82° East  Level Estimated
Fri 04:35:00 AM 47.6633 8.3125 82° East  Level Estimated
Fri 04:36:00 AM 47.6735 8.4245 82° East  Level Estimated
Fri 04:37:00 AM 47.6834 8.5365 82° East  Level Estimated
Fri 04:38:00 AM 47.6933 8.6486 82° East  Level Estimated
Fri 04:39:00 AM 47.7031 8.7607 83° East  Level Estimated
Fri 04:40:00 AM 47.7128 8.8729 83° East  Level Estimated
Fri 04:41:00 AM 47.7223 8.9851 83° East  Level Estimated
Fri 04:42:00 AM 47.7318 9.0973 83° East  Level Estimated
Fri 04:43:00 AM 47.7411 9.2096 83° East  Level Estimated
Fri 04:44:00 AM 47.7503 9.3219 83° East  Level Estimated
Fri 04:45:00 AM 47.7594 9.4342 83° East  Level Estimated
Fri 04:46:00 AM 47.7685 9.5466 83° East  Level Estimated
Fri 04:47:00 AM 47.7774 9.6590 83° East  Level Estimated
Fri 04:48:00 AM 47.7862 9.7715 83° East  Level Estimated
Fri 04:49:00 AM 47.7948 9.8840 83° East  Level Estimated
Fri 04:50:00 AM 47.8034 9.9966 83° East  Level Estimated
Fri 04:51:00 AM 47.8119 10.1091 84° East  Level Estimated
Fri 04:52:00 AM 47.8202 10.2218 84° East  Level Estimated
Fri 04:53:00 AM 47.8284 10.3344 84° East  Level Estimated
Fri 04:54:00 AM 47.8366 10.4471 84° East  Level Estimated
Fri 04:55:00 AM 47.8446 10.5598 84° East  Level Estimated
Fri 04:56:00 AM 47.8525 10.6726 84° East  Level Estimated
Fri 04:57:00 AM 47.8603 10.7854 84° East  Level Estimated
Fri 04:58:00 AM 47.8680 10.8982 84° East  Level Estimated
Fri 04:59:00 AM 47.8756 11.0111 84° East  Level Estimated
Fri 05:00:00 AM 47.8830 11.1240 84° East  Level Estimated
Fri 05:01:00 AM 47.8904 11.2369 84° East  Level Estimated
Fri 05:02:00 AM 47.8976 11.3498 84° East  Level Estimated
Fri 05:03:00 AM 47.9048 11.4628 85° East  Level Estimated
Fri 05:04:00 AM 47.9118 11.5758 85° East  Level Estimated
Fri 05:05:00 AM 47.9187 11.6889 85° East  Level Estimated
Fri 05:06:00 AM 47.9255 11.8020 85° East  Level Estimated
Fri 05:07:00 AM 47.9322 11.9151 85° East  Level Estimated
Fri 05:08:00 AM 47.9388 12.0282 85° East  Level Estimated
Fri 05:09:00 AM 47.9452 12.1414 85° East  Level Estimated
Fri 05:10:00 AM 47.9516 12.2546 85° East  Level Estimated
Fri 05:11:00 AM 47.9578 12.3678 85° East  Level Estimated
Fri 05:12:00 AM 47.9640 12.4810 85° East  Level Estimated
Fri 05:13:00 AM 47.9700 12.5943 85° East  Level Estimated
Fri 05:14:00 AM 47.9759 12.7076 86° East  Level Estimated
Fri 05:15:00 AM 47.9817 12.8210 86° East  Level Estimated
Fri 05:16:00 AM 47.9874 12.9343 86° East  Level Estimated
Fri 05:17:00 AM 47.9930 13.0477 86° East  Level Estimated
Fri 05:18:00 AM 47.9984 13.1611 86° East  Level Estimated
Fri 05:19:00 AM 48.0038 13.2745 86° East  Level Estimated
Fri 05:20:00 AM 48.0090 13.3880 86° East  Level Estimated
Fri 05:21:00 AM 48.0142 13.5014 86° East  Level Estimated
Fri 05:22:00 AM 48.0192 13.6149 86° East  Level Estimated
Fri 05:23:00 AM 48.0241 13.7284 86° East  Level Estimated
Fri 05:24:00 AM 48.0289 13.8420 86° East  Level Estimated
Fri 05:25:00 AM 48.0336 13.9555 86° East  Level Estimated
Fri 05:26:00 AM 48.0381 14.0691 87° East  Level Estimated
Fri 05:27:00 AM 48.0426 14.1827 87° East  Level Estimated
Fri 05:28:00 AM 48.0470 14.2963 87° East  Level Estimated
Fri 05:29:00 AM 48.0512 14.4100 87° East  Level Estimated
Fri 05:30:00 AM 48.0553 14.5236 87° East  Level Estimated
Fri 05:31:00 AM 48.0593 14.6373 87° East  Level Estimated
Fri 05:32:00 AM 48.0632 14.7510 87° East  Level Estimated
Fri 05:33:00 AM 48.0670 14.8647 87° East  Level Estimated
Fri 05:34:00 AM 48.0707 14.9784 87° East  Level Estimated
Fri 05:35:00 AM 48.0742 15.0922 87° East  Level Estimated
Fri 05:36:00 AM 48.0777 15.2059 87° East  Level Estimated
Fri 05:37:00 AM 48.0810 15.3197 87° East  Level Estimated
Fri 05:38:00 AM 48.0843 15.4335 88° East  Level Estimated
Fri 05:39:00 AM 48.0874 15.5473 88° East  Level Estimated
Fri 05:40:00 AM 48.0904 15.6611 88° East  Level Estimated
Fri 05:41:00 AM 48.0933 15.7749 88° East  Level Estimated
Fri 05:42:00 AM 48.0960 15.8888 88° East  Level Estimated
Fri 05:43:00 AM 48.0987 16.0026 88° East  Level Estimated
Fri 05:44:00 AM 48.1012 16.1165 88° East  Level Estimated
Fri 05:45:00 AM 48.1037 16.2303 88° East  Level Estimated
Fri 05:46:00 AM 48.1060 16.3442 88° East  Level Estimated
Fri 05:47:00 AM 48.1082 16.4581 88° East  Level Estimated
Fri 05:48:00 AM 48.1103 16.5697 88° East  Level Estimated

Login

Don't have an account? Register now (free) for customized features, flight alerts, and more!